Time;durP1;ratioP1;P1;durP2;ratioP2;P2;SDS_P1;SDS_P2;PMS_P1;PMS_P2;Temp;Humidity;BMP_temperature;BMP_pressure;BME280_temperature;BME280_humidity;BME280_pressure;Samples;Min_cycle;Max_cycle;Signal;HPM_P1;HPM_P2
2022/08/13 00:00:32;;;;;;;7.13;2.08;;;18.10;74.80;;;;;;4855206;29;20068;-66
2022/08/13 00:03:02;;;;;;;2.80;1.83;;;18.10;74.60;;;;;;4856628;29;20068;-67
2022/08/13 00:05:28;;;;;;;3.83;2.00;;;18.10;74.40;;;;;;4856893;29;20120;-67
2022/08/13 00:07:54;;;;;;;4.47;2.58;;;18.00;75.70;;;;;;4856412;29;20136;-69
2022/08/13 00:13:03;;;;;;;6.50;2.30;;;18.00;74.70;;;;;;4846803;29;20038;-68
2022/08/13 00:15:33;;;;;;;4.28;2.40;;;18.00;75.90;;;;;;4853102;29;20366;-68
2022/08/13 00:18:02;;;;;;;4.35;2.30;;;17.90;75.80;;;;;;4848066;29;20041;-68
2022/08/13 00:20:32;;;;;;;4.90;2.25;;;17.80;76.60;;;;;;4856772;29;20458;-68
2022/08/13 00:22:58;;;;;;;4.78;2.40;;;17.80;75.50;;;;;;4855208;29;20481;-69
2022/08/13 00:25:24;;;;;;;5.10;2.22;;;17.80;76.80;;;;;;4849433;29;20403;-68
2022/08/13 00:27:56;;;;;;;4.88;2.00;;;17.70;75.80;;;;;;4854694;29;20037;-67
2022/08/13 00:30:33;;;;;;;5.65;2.25;;;17.70;76.70;;;;;;4856764;29;20029;-67
2022/08/13 00:33:05;;;;;;;3.55;1.92;;;17.70;77.00;;;;;;4856188;29;20033;-67
2022/08/13 00:35:35;;;;;;;6.20;2.65;;;17.70;76.30;;;;;;4855907;29;20435;-67
2022/08/13 00:38:01;;;;;;;3.92;2.25;;;17.70;76.00;;;;;;4851083;29;20037;-70
2022/08/13 00:40:29;;;;;;;3.30;2.17;;;17.60;76.40;;;;;;4856728;29;20042;-66
2022/08/13 00:43:02;;;;;;;7.38;2.53;;;17.60;76.20;;;;;;4853956;29;20474;-67
2022/08/13 00:45:30;;;;;;;4.07;2.03;;;17.60;76.40;;;;;;4836063;29;20206;-67
2022/08/13 00:50:40;;;;;;;8.85;2.60;;;17.50;77.50;;;;;;4852149;29;20560;-66
2022/08/13 00:53:05;;;;;;;4.03;2.50;;;17.50;77.10;;;;;;4850516;29;20057;-67
2022/08/13 00:55:31;;;;;;;3.17;2.15;;;17.50;76.30;;;;;;4857003;29;20037;-68
2022/08/13 00:57:58;;;;;;;4.03;2.20;;;17.40;76.90;;;;;;4856147;29;20097;-70
2022/08/13 01:00:25;;;;;;;3.33;1.73;;;17.40;76.90;;;;;;4856314;29;20041;-68
2022/08/13 01:02:53;;;;;;;8.25;2.42;;;17.30;76.60;;;;;;4846732;29;20034;-67
2022/08/13 01:05:24;;;;;;;6.80;2.15;;;17.30;76.90;;;;;;4856739;29;20033;-67
2022/08/13 01:07:50;;;;;;;4.90;2.03;;;17.30;77.90;;;;;;4857281;29;20101;-67
2022/08/13 01:10:17;;;;;;;4.10;2.28;;;17.30;77.70;;;;;;4855035;29;20040;-67
2022/08/13 01:12:45;;;;;;;4.10;2.10;;;17.30;77.30;;;;;;4857663;29;20029;-68
2022/08/13 01:15:12;;;;;;;4.65;2.13;;;17.20;77.20;;;;;;4853761;29;20144;-67
2022/08/13 01:17:41;;;;;;;3.60;2.20;;;17.20;77.30;;;;;;4855337;29;20040;-67
2022/08/13 01:20:09;;;;;;;6.72;2.33;;;17.20;77.30;;;;;;4856936;29;20097;-67
2022/08/13 01:22:36;;;;;;;3.88;2.25;;;17.10;76.80;;;;;;4855532;29;20061;-67
2022/08/13 01:25:05;;;;;;;8.15;2.17;;;17.10;76.70;;;;;;4854847;29;20454;-67
2022/08/13 01:27:31;;;;;;;3.17;2.20;;;17.10;77.00;;;;;;4857581;29;20503;-67
2022/08/13 01:29:56;;;;;;;5.78;1.98;;;17.00;76.70;;;;;;4853282;29;20073;-67
2022/08/13 01:32:23;;;;;;;7.35;2.38;;;17.00;77.50;;;;;;4854069;29;20477;-68
2022/08/13 01:34:50;;;;;;;6.63;2.50;;;17.00;77.60;;;;;;4867762;29;20471;-70
2022/08/13 01:37:17;;;;;;;3.97;2.15;;;17.00;76.90;;;;;;4853425;29;20033;-67
2022/08/13 01:39:44;;;;;;;4.30;2.00;;;17.00;76.30;;;;;;4855749;29;20349;-68
2022/08/13 01:42:20;;;;;;;5.35;1.98;;;16.90;76.30;;;;;;4855383;29;20105;-68
2022/08/13 01:44:49;;;;;;;3.97;1.70;;;16.90;76.30;;;;;;4850294;29;20490;-72
2022/08/13 01:52:47;;;;;;;2.78;1.80;;;16.80;77.00;;;;;;4856014;29;20041;-67
2022/08/13 01:55:13;;;;;;;6.65;1.98;;;16.80;76.70;;;;;;4855410;29;20045;-68
2022/08/13 01:57:43;;;;;;;3.20;2.10;;;16.80;76.50;;;;;;4857246;29;20037;-68
2022/08/13 02:00:13;;;;;;;2.72;1.73;;;16.80;75.90;;;;;;4858404;29;20033;-67
2022/08/13 02:02:39;;;;;;;3.08;1.75;;;16.70;76.30;;;;;;4857464;29;20128;-68
2022/08/13 02:05:05;;;;;;;3.58;1.67;;;16.70;76.70;;;;;;4858161;29;20492;-68
2022/08/13 02:07:31;;;;;;;4.82;2.03;;;16.70;76.60;;;;;;4860860;29;20072;-68
2022/08/13 02:09:57;;;;;;;4.40;2.40;;;16.60;76.10;;;;;;4856962;29;20510;-68
2022/08/13 02:12:23;;;;;;;3.40;2.15;;;16.60;76.00;;;;;;4859491;29;20025;-67
2022/08/13 02:14:49;;;;;;;4.38;2.08;;;16.60;75.70;;;;;;4858248;29;20386;-69
2022/08/13 02:17:27;;;;;;;6.05;2.50;;;16.50;76.70;;;;;;4857575;29;20044;-67
2022/08/13 02:19:56;;;;;;;5.05;2.38;;;16.50;76.90;;;;;;4856276;29;20151;-69
2022/08/13 02:22:24;;;;;;;3.40;2.00;;;16.50;76.90;;;;;;4860039;29;20041;-67
2022/08/13 02:24:54;;;;;;;3.47;2.20;;;16.50;76.50;;;;;;4854576;29;20046;-68
2022/08/13 02:27:24;;;;;;;2.88;1.92;;;16.50;76.90;;;;;;4844426;29;20029;-69
2022/08/13 02:29:51;;;;;;;6.88;2.50;;;16.40;77.00;;;;;;4857010;29;20052;-70
2022/08/13 02:32:18;;;;;;;5.30;2.13;;;16.40;76.40;;;;;;4854649;29;20071;-67
2022/08/13 02:34:46;;;;;;;4.05;2.30;;;16.40;77.10;;;;;;4856723;29;20045;-68
2022/08/13 02:37:13;;;;;;;2.65;1.85;;;16.30;77.00;;;;;;4857441;29;20032;-66
2022/08/13 02:39:38;;;;;;;7.72;2.28;;;16.30;77.20;;;;;;4866835;29;20037;-65
2022/08/13 02:42:04;;;;;;;3.83;2.22;;;16.30;77.20;;;;;;4843425;29;20040;-67
2022/08/13 02:44:31;;;;;;;3.33;1.98;;;16.30;77.30;;;;;;4851944;29;20044;-66
2022/08/13 02:46:56;;;;;;;7.47;2.00;;;16.30;77.70;;;;;;4858078;29;20037;-66
2022/08/13 02:49:22;;;;;;;5.88;2.25;;;16.20;77.10;;;;;;4858971;29;20044;-66
2022/08/13 02:51:49;;;;;;;4.57;2.20;;;16.20;77.50;;;;;;4858864;29;20366;-66
2022/08/13 02:54:17;;;;;;;4.13;2.28;;;16.30;77.70;;;;;;4859258;29;20048;-66
2022/08/13 02:56:43;;;;;;;4.85;2.20;;;16.20;77.50;;;;;;4859253;29;20033;-66
2022/08/13 02:59:10;;;;;;;3.40;2.20;;;16.20;77.40;;;;;;4858558;29;20069;-66
2022/08/13 03:01:40;;;;;;;3.38;1.90;;;16.20;77.60;;;;;;4855470;29;20091;-65
2022/08/13 03:04:07;;;;;;;2.80;1.83;;;16.20;77.50;;;;;;4858338;29;20064;-65
2022/08/13 03:06:33;;;;;;;5.35;2.20;;;16.10;77.70;;;;;;4859314;29;20477;-66
2022/08/13 03:09:01;;;;;;;4.25;1.95;;;16.20;77.60;;;;;;4857151;29;20033;-66
2022/08/13 03:11:29;;;;;;;5.53;2.25;;;16.10;77.20;;;;;;4859013;29;20315;-65
2022/08/13 03:14:01;;;;;;;4.13;2.20;;;16.10;77.10;;;;;;4858349;29;20082;-66
2022/08/13 03:16:27;;;;;;;3.45;1.90;;;16.10;77.20;;;;;;4857971;29;20116;-65
2022/08/13 03:18:54;;;;;;;6.38;1.95;;;16.10;77.20;;;;;;4857093;29;20486;-67
2022/08/13 03:21:23;;;;;;;6.60;2.05;;;16.00;77.30;;;;;;4859071;29;20030;-66
2022/08/13 03:23:51;;;;;;;4.03;2.00;;;16.00;77.40;;;;;;4853270;29;20438;-67
2022/08/13 03:26:17;;;;;;;3.28;2.08;;;16.00;77.30;;;;;;4858402;29;20041;-67
2022/08/13 03:28:46;;;;;;;4.28;1.98;;;16.00;77.60;;;;;;4856728;29;20029;-66
2022/08/13 03:31:12;;;;;;;4.68;1.98;;;16.00;77.60;;;;;;4858506;29;20037;-66
2022/08/13 03:33:38;;;;;;;5.25;2.03;;;16.00;78.00;;;;;;4855514;29;20044;-66
2022/08/13 03:36:04;;;;;;;4.90;2.13;;;15.90;77.90;;;;;;4859020;29;20041;-66
2022/08/13 03:38:30;;;;;;;4.68;2.13;;;15.90;77.80;;;;;;4855151;29;20034;-66
2022/08/13 03:41:01;;;;;;;3.55;2.03;;;16.00;77.70;;;;;;4859183;29;20059;-66
2022/08/13 03:43:30;;;;;;;4.43;2.10;;;16.00;77.90;;;;;;4854821;29;20034;-68
2022/08/13 03:45:57;;;;;;;5.63;2.60;;;15.90;77.80;;;;;;4855250;29;20458;-68
2022/08/13 03:48:25;;;;;;;4.72;2.35;;;15.90;78.30;;;;;;4856802;29;20021;-66
2022/08/13 03:50:51;;;;;;;6.18;2.38;;;15.90;78.40;;;;;;4854145;29;20173;-67
2022/08/13 03:53:17;;;;;;;3.88;2.28;;;15.90;78.20;;;;;;4858783;29;20050;-66
2022/08/13 03:55:44;;;;;;;6.28;2.22;;;15.90;78.30;;;;;;4858368;29;20145;-67
2022/08/13 03:58:11;;;;;;;6.22;2.30;;;15.90;78.50;;;;;;4841265;29;20041;-67
2022/08/13 04:00:40;;;;;;;5.55;2.72;;;15.90;78.70;;;;;;4857700;29;20041;-67
2022/08/13 04:03:19;;;;;;;4.60;2.30;;;15.90;78.90;;;;;;4849018;29;20030;-67
2022/08/13 04:05:45;;;;;;;6.05;2.30;;;15.80;78.30;;;;;;4855435;29;20153;-67
2022/08/13 04:08:11;;;;;;;6.03;2.17;;;15.90;78.50;;;;;;4858879;29;20133;-66
2022/08/13 04:10:37;;;;;;;4.30;2.30;;;15.80;78.60;;;;;;4856600;29;20548;-66
2022/08/13 04:13:03;;;;;;;4.47;2.20;;;15.90;79.00;;;;;;4853779;29;20066;-67
2022/08/13 04:15:30;;;;;;;3.58;2.10;;;15.90;78.90;;;;;;4858403;29;20030;-67
2022/08/13 04:17:55;;;;;;;4.05;2.20;;;15.90;78.50;;;;;;4855808;29;22097;-67
2022/08/13 04:20:21;;;;;;;3.72;2.08;;;15.90;78.70;;;;;;4859095;29;20133;-66
2022/08/13 04:22:47;;;;;;;4.07;2.40;;;15.90;78.80;;;;;;4868347;29;20029;-66
2022/08/13 04:25:13;;;;;;;3.42;2.20;;;15.90;78.50;;;;;;4865724;29;20026;-66
2022/08/13 04:27:39;;;;;;;3.78;2.38;;;16.00;78.60;;;;;;4859618;29;20049;-67
2022/08/13 04:30:05;;;;;;;2.65;1.90;;;16.00;78.90;;;;;;4855813;29;20047;-67
2022/08/13 04:32:41;;;;;;;4.10;2.47;;;16.00;78.60;;;;;;4858396;29;20086;-67
2022/08/13 04:35:08;;;;;;;3.65;2.28;;;16.00;78.40;;;;;;4856779;29;20479;-66
2022/08/13 04:37:33;;;;;;;3.75;2.53;;;16.10;79.00;;;;;;4859004;29;20408;-67
2022/08/13 04:39:59;;;;;;;3.78;2.00;;;16.10;78.90;;;;;;4858172;29;20041;-67
2022/08/13 04:42:24;;;;;;;4.78;2.78;;;16.10;79.20;;;;;;4859606;29;20056;-67
2022/08/13 04:44:50;;;;;;;3.15;2.38;;;16.20;79.40;;;;;;4856734;29;20049;-69
2022/08/13 04:47:17;;;;;;;3.20;2.17;;;16.10;79.10;;;;;;4857935;29;20029;-66
2022/08/13 04:49:42;;;;;;;6.50;2.25;;;16.20;79.60;;;;;;4861238;29;20048;-66
2022/08/13 04:52:08;;;;;;;4.07;2.33;;;16.20;79.50;;;;;;4855169;29;20045;-67
2022/08/13 04:54:33;;;;;;;3.95;2.35;;;16.30;79.50;;;;;;4858206;29;20037;-65
2022/08/13 04:56:59;;;;;;;3.63;2.13;;;16.40;79.50;;;;;;4869161;29;20044;-66
2022/08/13 04:59:24;;;;;;;3.53;2.17;;;16.40;79.50;;;;;;4858370;29;20057;-66
2022/08/13 05:01:50;;;;;;;4.88;2.63;;;16.50;78.90;;;;;;4853045;29;20474;-68
2022/08/13 05:04:17;;;;;;;4.32;2.58;;;16.50;79.20;;;;;;4852625;29;20025;-65
2022/08/13 05:06:43;;;;;;;4.97;2.47;;;16.50;79.10;;;;;;4857516;29;20454;-65
2022/08/13 05:09:08;;;;;;;6.13;2.22;;;16.60;79.10;;;;;;4854774;29;20132;-66
2022/08/13 05:11:34;;;;;;;4.93;2.20;;;16.60;79.00;;;;;;4859345;29;20037;-65
2022/08/13 05:14:00;;;;;;;5.35;2.55;;;16.70;78.90;;;;;;4861174;29;20033;-66
2022/08/13 05:16:25;;;;;;;4.22;1.98;;;16.70;79.30;;;;;;4861485;29;20036;-65
2022/08/13 05:18:53;;;;;;;5.13;2.55;;;16.80;79.20;;;;;;4850524;29;20033;-66
2022/08/13 05:21:22;;;;;;;5.93;2.58;;;16.90;78.90;;;;;;4855788;29;20061;-65
2022/08/13 05:23:53;;;;;;;5.70;2.13;;;16.90;79.00;;;;;;4854483;29;20081;-66
2022/08/13 05:26:23;;;;;;;4.78;2.17;;;17.10;78.00;;;;;;4855321;29;20059;-65
2022/08/13 05:28:50;;;;;;;7.50;2.55;;;17.30;77.00;;;;;;4854139;29;20042;-66
2022/08/13 05:31:17;;;;;;;5.50;2.00;;;17.50;75.20;;;;;;4855034;29;20116;-65
2022/08/13 05:33:42;;;;;;;3.58;2.17;;;17.60;75.80;;;;;;4856532;29;20036;-65
2022/08/13 05:36:09;;;;;;;6.30;1.88;;;17.70;76.10;;;;;;4854383;29;20062;-65
2022/08/13 05:38:35;;;;;;;5.57;2.60;;;17.70;76.30;;;;;;4855049;29;20033;-64
2022/08/13 05:41:04;;;;;;;3.97;2.10;;;17.80;76.20;;;;;;4841917;29;20094;-64
2022/08/13 05:43:33;;;;;;;5.22;2.30;;;17.80;75.90;;;;;;4848628;29;20029;-66
2022/08/13 05:46:02;;;;;;;6.47;2.10;;;17.90;76.10;;;;;;4851537;29;20912;-65
2022/08/13 05:48:30;;;;;;;5.85;2.42;;;18.00;75.20;;;;;;4849513;29;20033;-65
2022/08/13 05:51:00;;;;;;;4.45;3.03;;;18.10;76.00;;;;;;4851961;29;20102;-66
2022/08/13 05:53:27;;;;;;;4.77;2.17;;;18.10;75.90;;;;;;4849454;29;20053;-65
2022/08/13 05:55:54;;;;;;;4.07;2.40;;;18.30;75.60;;;;;;4854883;29;20082;-65
2022/08/13 05:58:21;;;;;;;4.15;1.98;;;18.40;75.30;;;;;;4853149;29;20394;-65
2022/08/13 06:03:32;;;;;;;4.78;2.25;;;18.60;74.10;;;;;;4850656;29;20089;-65
2022/08/13 06:05:59;;;;;;;5.57;2.28;;;18.80;74.30;;;;;;4855644;29;20073;-67
2022/08/13 06:08:35;;;;;;;4.20;2.33;;;19.00;73.70;;;;;;4859069;29;20462;-67
2022/08/13 06:11:03;;;;;;;4.53;2.20;;;19.00;73.90;;;;;;4855261;29;22166;-66
2022/08/13 06:13:30;;;;;;;4.25;2.20;;;19.10;74.40;;;;;;4852237;29;20095;-65
2022/08/13 06:16:00;;;;;;;4.55;1.92;;;19.30;72.40;;;;;;4849867;29;20175;-66
2022/08/13 06:18:27;;;;;;;5.20;2.05;;;19.50;70.80;;;;;;4851925;29;20420;-67
2022/08/13 06:20:57;;;;;;;7.05;2.33;;;19.80;69.20;;;;;;4856853;29;20066;-69
2022/08/13 06:23:24;;;;;;;8.47;2.37;;;20.00;69.10;;;;;;4859550;29;20025;-66
2022/08/13 06:25:54;;;;;;;6.68;2.40;;;20.30;66.70;;;;;;4855263;29;20155;-68
2022/08/13 06:28:21;;;;;;;5.65;2.40;;;20.50;66.20;;;;;;4848765;29;20076;-69
2022/08/13 06:30:52;;;;;;;6.47;2.00;;;20.70;66.60;;;;;;4849241;29;20108;-70
2022/08/13 06:33:22;;;;;;;6.60;2.67;;;20.90;65.30;;;;;;4851315;29;20555;-69
2022/08/13 06:35:56;;;;;;;3.25;2.22;;;21.10;64.70;;;;;;4853032;29;20045;-70
2022/08/13 06:38:29;;;;;;;3.88;2.08;;;21.30;65.80;;;;;;4845213;29;20470;-70
2022/08/13 06:41:02;;;;;;;4.05;2.03;;;21.30;66.00;;;;;;4858098;29;20033;-70
2022/08/13 06:43:42;;;;;;;6.97;2.42;;;21.40;68.10;;;;;;4857569;29;20041;-69
2022/08/13 06:46:11;;;;;;;4.13;2.00;;;21.50;66.90;;;;;;4857340;29;20477;-69
2022/08/13 06:48:39;;;;;;;6.95;2.45;;;21.70;66.20;;;;;;4857908;29;20037;-70
2022/08/13 06:51:07;;;;;;;5.72;2.28;;;21.80;65.60;;;;;;4860368;29;20072;-69
2022/08/13 06:53:35;;;;;;;5.70;2.00;;;21.90;66.90;;;;;;4860305;29;20499;-69
2022/08/13 06:56:03;;;;;;;4.50;2.10;;;22.00;67.20;;;;;;4861624;29;20053;-69
2022/08/13 06:58:30;;;;;;;5.78;2.10;;;22.20;63.60;;;;;;4860050;29;20569;-70
2022/08/13 07:00:58;;;;;;;3.38;2.00;;;22.30;63.30;;;;;;4852898;29;20069;-70
2022/08/13 07:03:32;;;;;;;6.20;2.30;;;22.70;61.00;;;;;;4841464;29;20037;-69
2022/08/13 07:05:59;;;;;;;3.53;1.90;;;22.90;61.60;;;;;;4860164;29;20113;-69
2022/08/13 07:08:26;;;;;;;7.43;2.10;;;22.90;63.40;;;;;;4856345;29;20045;-69
2022/08/13 07:13:43;;;;;;;3.67;1.58;;;23.00;61.20;;;;;;4859329;29;20044;-70
2022/08/13 07:16:11;;;;;;;3.42;2.00;;;23.30;60.50;;;;;;4858619;29;20033;-69
2022/08/13 07:18:37;;;;;;;3.53;1.80;;;23.40;62.40;;;;;;4858125;29;20501;-69
2022/08/13 07:21:09;;;;;;;5.82;2.10;;;23.40;62.00;;;;;;4855888;29;20042;-70
2022/08/13 07:23:36;;;;;;;2.33;1.83;;;23.60;59.90;;;;;;4854755;29;20037;-69
2022/08/13 07:26:03;;;;;;;2.78;1.98;;;23.70;59.30;;;;;;4859817;29;20037;-70
2022/08/13 07:28:29;;;;;;;5.57;1.92;;;23.80;59.50;;;;;;4842071;29;20045;-69
2022/08/13 07:30:56;;;;;;;2.53;1.55;;;24.00;58.80;;;;;;4852814;29;20045;-70
2022/08/13 07:33:22;;;;;;;3.25;1.80;;;24.20;59.30;;;;;;4845602;29;20030;-71
2022/08/13 07:35:48;;;;;;;4.82;2.03;;;24.30;55.90;;;;;;4855098;29;20042;-70
2022/08/13 07:38:15;;;;;;;4.85;1.67;;;24.60;54.90;;;;;;4859404;29;20139;-69
2022/08/13 07:40:43;;;;;;;3.65;1.73;;;24.80;56.50;;;;;;4856316;29;20690;-70
2022/08/13 07:43:11;;;;;;;5.43;1.60;;;25.00;57.40;;;;;;4857638;29;20037;-70
2022/08/13 07:45:37;;;;;;;5.15;1.95;;;25.20;55.40;;;;;;4857934;29;20120;-69
2022/08/13 07:48:04;;;;;;;3.75;2.03;;;25.30;54.20;;;;;;4854882;29;20193;-69
2022/08/13 07:50:30;;;;;;;6.05;2.10;;;25.50;53.70;;;;;;4855730;29;20168;-69
2022/08/13 07:52:57;;;;;;;5.28;2.38;;;25.70;53.80;;;;;;4854059;29;20397;-69
2022/08/13 07:55:25;;;;;;;9.00;2.30;;;25.80;51.40;;;;;;4853574;29;20030;-69
2022/08/13 07:57:51;;;;;;;3.90;1.75;;;26.00;51.70;;;;;;4836863;29;20033;-69
2022/08/13 08:00:25;;;;;;;3.55;2.00;;;26.20;51.30;;;;;;4859746;29;20055;-69
2022/08/13 08:02:56;;;;;;;6.75;2.08;;;26.30;51.80;;;;;;4853483;29;20042;-69
2022/08/13 08:05:24;;;;;;;2.90;2.30;;;26.40;51.90;;;;;;4855797;29;20033;-68
2022/08/13 08:07:51;;;;;;;4.40;1.73;;;26.50;53.00;;;;;;4857500;29;20054;-69
2022/08/13 08:10:18;;;;;;;3.20;1.70;;;26.60;49.70;;;;;;4858728;29;20462;-68
2022/08/13 08:12:44;;;;;;;14.45;5.47;;;26.90;50.80;;;;;;4849410;29;20138;-69
2022/08/13 08:15:11;;;;;;;8.32;2.50;;;27.00;48.70;;;;;;4857663;29;20037;-69
2022/08/13 08:17:37;;;;;;;3.03;1.52;;;27.20;50.40;;;;;;4858701;29;20036;-69
2022/08/13 08:20:04;;;;;;;2.58;1.70;;;27.30;47.00;;;;;;4850880;29;20041;-69
2022/08/13 08:22:30;;;;;;;3.65;1.73;;;27.40;45.80;;;;;;4857503;29;20121;-69
2022/08/13 08:24:57;;;;;;;4.32;1.80;;;27.60;45.50;;;;;;4857466;29;20029;-69
2022/08/13 08:27:25;;;;;;;2.97;1.77;;;27.70;45.60;;;;;;4855835;29;20026;-69
2022/08/13 08:29:52;;;;;;;2.80;1.60;;;27.90;47.50;;;;;;4847495;29;20037;-70
2022/08/13 08:32:19;;;;;;;4.47;1.70;;;28.10;44.60;;;;;;4854502;29;20036;-66
2022/08/13 08:34:47;;;;;;;8.35;2.75;;;28.40;44.00;;;;;;4840334;29;20026;-66
2022/08/13 08:43:01;;;;;;;6.57;2.10;;;28.60;44.70;;;;;;4853254;29;19950;-70
2022/08/13 08:45:27;;;;;;;4.70;1.67;;;28.80;44.40;;;;;;4851197;29;20033;-67
2022/08/13 08:47:52;;;;;;;2.38;1.30;;;28.90;42.10;;;;;;4855267;29;20085;-68
2022/08/13 08:50:26;;;;;;;3.10;1.58;;;28.80;40.00;;;;;;4864085;29;20394;-68
2022/08/13 08:55:38;;;;;;;2.28;1.20;;;29.00;40.30;;;;;;4849291;29;20109;-67
2022/08/13 08:58:07;;;;;;;2.88;1.33;;;29.20;41.60;;;;;;4855300;29;20073;-68
2022/08/13 09:00:39;;;;;;;3.15;1.55;;;29.40;41.40;;;;;;4851720;29;20049;-70
2022/08/13 09:03:05;;;;;;;7.70;1.50;;;29.50;41.10;;;;;;4852623;29;20405;-68
2022/08/13 09:05:31;;;;;;;1.98;1.35;;;29.50;40.80;;;;;;4859494;29;20426;-68
2022/08/13 09:08:01;;;;;;;2.55;1.30;;;29.80;40.60;;;;;;4854199;29;20117;-70
2022/08/13 09:10:33;;;;;;;3.40;1.50;;;29.60;39.60;;;;;;4859226;29;20101;-68
2022/08/13 09:13:02;;;;;;;2.15;1.42;;;29.60;39.50;;;;;;4855094;29;20050;-68
2022/08/13 09:15:29;;;;;;;2.72;1.48;;;29.70;40.60;;;;;;4854622;29;20418;-71
2022/08/13 09:17:55;;;;;;;2.85;1.25;;;29.90;39.50;;;;;;4852451;29;20082;-71
2022/08/13 09:20:23;;;;;;;3.30;1.20;;;30.00;39.60;;;;;;4862685;29;20037;-69
2022/08/13 09:23:00;;;;;;;1.73;1.15;;;30.10;37.50;;;;;;4853148;29;20033;-69
2022/08/13 09:25:27;;;;;;;3.33;1.30;;;30.20;37.60;;;;;;4853869;29;20195;-68
2022/08/13 09:27:53;;;;;;;3.13;1.33;;;30.40;38.50;;;;;;4853910;29;20105;-69
2022/08/13 09:30:20;;;;;;;2.50;1.25;;;30.50;39.10;;;;;;4849152;29;20417;-70
2022/08/13 09:32:46;;;;;;;8.90;1.27;;;30.40;38.90;;;;;;4853011;29;20029;-68
2022/08/13 09:35:12;;;;;;;3.75;1.45;;;30.60;37.90;;;;;;4856661;29;20638;-68
2022/08/13 09:37:39;;;;;;;4.75;1.70;;;30.50;38.00;;;;;;4848982;29;20193;-68
2022/08/13 09:40:07;;;;;;;5.30;1.60;;;30.90;37.50;;;;;;4853114;29;20037;-70
2022/08/13 09:42:39;;;;;;;8.10;1.70;;;30.90;37.20;;;;;;4851913;29;20136;-71
2022/08/13 09:45:06;;;;;;;2.70;1.52;;;30.80;38.30;;;;;;4854398;29;20411;-70
2022/08/13 09:47:32;;;;;;;3.60;1.80;;;30.90;38.40;;;;;;4852705;29;20085;-70
2022/08/13 09:49:57;;;;;;;3.65;1.40;;;30.90;38.30;;;;;;4847025;29;20049;-68
2022/08/13 09:52:23;;;;;;;6.53;1.65;;;31.00;37.90;;;;;;4841206;29;20621;-70
2022/08/13 09:54:49;;;;;;;2.83;1.50;;;31.00;37.00;;;;;;4848537;29;20068;-70
2022/08/13 09:57:17;;;;;;;5.50;1.67;;;31.20;38.30;;;;;;4850545;29;20034;-67
2022/08/13 09:59:43;;;;;;;2.92;1.67;;;31.10;36.90;;;;;;4850920;29;20075;-69
2022/08/13 10:02:12;;;;;;;1.58;1.40;;;30.80;37.20;;;;;;4852389;29;20037;-69
2022/08/13 10:04:39;;;;;;;4.68;2.00;;;31.30;36.80;;;;;;4850389;29;22047;-68
2022/08/13 10:07:07;;;;;;;4.90;1.60;;;31.00;36.50;;;;;;4857236;29;20441;-69
2022/08/13 10:09:34;;;;;;;3.40;1.42;;;31.30;36.80;;;;;;4851239;29;20171;-67
2022/08/13 10:12:00;;;;;;;5.85;1.63;;;31.40;35.70;;;;;;4853800;29;20041;-68
2022/08/13 10:14:26;;;;;;;3.65;1.77;;;31.30;36.60;;;;;;4856335;29;20084;-68
2022/08/13 10:16:53;;;;;;;4.03;1.73;;;31.40;36.40;;;;;;4858075;29;20037;-68
2022/08/13 10:19:18;;;;;;;3.20;1.73;;;30.90;37.30;;;;;;4855086;29;20025;-67
2022/08/13 10:21:44;;;;;;;3.08;1.60;;;31.10;37.30;;;;;;4856446;29;20049;-67
2022/08/13 10:24:10;;;;;;;4.15;1.80;;;31.00;36.90;;;;;;4861012;29;20072;-68
2022/08/13 10:26:40;;;;;;;3.97;1.95;;;31.20;38.20;;;;;;4857522;29;20045;-68
2022/08/13 10:29:08;;;;;;;3.20;1.55;;;31.50;37.50;;;;;;4858916;29;20037;-68
2022/08/13 10:31:38;;;;;;;4.60;1.50;;;31.70;36.60;;;;;;4839635;29;20042;-67
2022/08/13 10:34:04;;;;;;;6.72;2.00;;;32.00;36.00;;;;;;4853084;29;20064;-69
2022/08/13 10:36:31;;;;;;;2.10;1.63;;;31.60;37.10;;;;;;4855166;29;20086;-67
2022/08/13 10:38:57;;;;;;;5.70;1.88;;;31.50;37.50;;;;;;4858563;29;20402;-70
2022/08/13 10:41:24;;;;;;;2.90;1.50;;;31.40;36.20;;;;;;4852064;29;20046;-68
2022/08/13 10:43:51;;;;;;;3.38;1.60;;;32.00;38.10;;;;;;4856132;29;20044;-68
2022/08/13 10:46:17;;;;;;;4.35;1.73;;;32.50;36.90;;;;;;4860983;29;20025;-68
2022/08/13 10:48:44;;;;;;;5.70;1.73;;;32.60;34.50;;;;;;4855408;29;20036;-69
2022/08/13 10:51:10;;;;;;;2.65;1.67;;;32.80;34.60;;;;;;4852599;29;20606;-69
2022/08/13 10:56:21;;;;;;;7.63;1.83;;;32.90;35.20;;;;;;4849258;29;20090;-68
2022/08/13 10:58:47;;;;;;;3.45;1.70;;;32.70;35.30;;;;;;4853852;29;20029;-70
2022/08/13 11:01:13;;;;;;;2.28;1.52;;;33.30;33.70;;;;;;4853875;29;20121;-68
2022/08/13 11:03:38;;;;;;;3.95;1.50;;;33.20;33.60;;;;;;4862104;29;20228;-69
2022/08/13 11:06:06;;;;;;;4.45;1.52;;;33.50;34.80;;;;;;4853595;29;20033;-66
2022/08/13 11:08:36;;;;;;;7.15;1.80;;;33.30;33.90;;;;;;4854325;29;20029;-67
2022/08/13 11:11:03;;;;;;;2.83;1.65;;;33.60;34.20;;;;;;4854385;29;20049;-67
2022/08/13 11:13:31;;;;;;;3.92;1.67;;;33.70;33.80;;;;;;4858405;29;20041;-67
2022/08/13 11:15:56;;;;;;;3.55;1.80;;;33.50;33.70;;;;;;4858145;29;20121;-68
2022/08/13 11:18:22;;;;;;;4.47;1.90;;;33.70;34.80;;;;;;4853160;29;20037;-68
2022/08/13 11:21:03;;;;;;;2.17;1.65;;;33.70;34.00;;;;;;4851837;29;20427;-68
2022/08/13 11:23:29;;;;;;;2.83;1.63;;;33.70;33.30;;;;;;4858736;29;20447;-67
2022/08/13 11:25:55;;;;;;;6.35;1.83;;;33.60;33.50;;;;;;4858560;29;20038;-68
2022/08/13 11:28:20;;;;;;;4.43;1.90;;;33.50;33.70;;;;;;4856284;29;20053;-68
2022/08/13 11:30:47;;;;;;;4.32;1.73;;;34.10;34.10;;;;;;4861088;29;20500;-68
2022/08/13 11:33:13;;;;;;;4.55;1.90;;;33.10;33.00;;;;;;4841791;29;20038;-67
2022/08/13 11:35:38;;;;;;;3.25;1.60;;;33.60;33.00;;;;;;4860714;29;20036;-67
2022/08/13 11:38:12;;;;;;;6.25;1.60;;;33.70;33.20;;;;;;4853854;29;20077;-67
2022/08/13 11:40:38;;;;;;;3.28;1.80;;;34.00;34.50;;;;;;4859556;29;20622;-67
2022/08/13 11:43:04;;;;;;;2.72;1.63;;;34.60;34.50;;;;;;4857134;29;20102;-69
2022/08/13 11:45:31;;;;;;;2.63;1.65;;;34.90;33.80;;;;;;4858407;29;20478;-67
2022/08/13 11:47:56;;;;;;;2.88;1.70;;;35.00;32.50;;;;;;4852811;29;20112;-70
2022/08/13 11:50:22;;;;;;;3.05;1.77;;;35.40;32.80;;;;;;4855510;29;20399;-69
2022/08/13 11:52:47;;;;;;;4.68;1.70;;;35.00;31.40;;;;;;4858522;29;20498;-68
2022/08/13 11:55:13;;;;;;;3.80;1.77;;;34.60;33.00;;;;;;4849847;29;20145;-67
2022/08/13 11:57:38;;;;;;;2.47;1.70;;;34.70;32.20;;;;;;4857262;29;20045;-68
2022/08/13 12:00:06;;;;;;;2.92;1.77;;;34.90;32.30;;;;;;4850067;29;20470;-68
2022/08/13 12:02:31;;;;;;;2.90;1.92;;;35.10;32.00;;;;;;4849399;29;20037;-68
2022/08/13 12:04:57;;;;;;;5.55;2.30;;;35.30;32.40;;;;;;4851380;29;20096;-68
2022/08/13 12:07:23;;;;;;;5.15;1.90;;;35.50;31.10;;;;;;4856125;29;20093;-67
2022/08/13 12:09:49;;;;;;;3.45;1.77;;;35.10;32.00;;;;;;4850792;29;20101;-68
2022/08/13 12:12:15;;;;;;;4.38;2.00;;;34.00;34.50;;;;;;4853956;29;20033;-67
2022/08/13 12:14:40;;;;;;;4.18;2.15;;;33.20;34.30;;;;;;4851535;29;20029;-67
2022/08/13 12:17:06;;;;;;;6.47;2.15;;;32.90;35.60;;;;;;4853571;29;20101;-67
2022/08/13 12:19:32;;;;;;;4.30;2.25;;;32.70;35.80;;;;;;4856334;29;20057;-66
2022/08/13 12:21:59;;;;;;;4.40;2.35;;;32.10;35.80;;;;;;4855104;29;20355;-68
2022/08/13 12:24:25;;;;;;;5.47;2.45;;;32.20;37.10;;;;;;4836086;29;20037;-69
2022/08/13 12:26:51;;;;;;;7.60;2.80;;;32.10;36.30;;;;;;4856209;29;20044;-67
2022/08/13 12:29:16;;;;;;;3.63;2.45;;;32.00;37.30;;;;;;4856505;29;20113;-67
2022/08/13 12:31:42;;;;;;;3.97;2.47;;;32.30;38.20;;;;;;4852339;29;20496;-70
2022/08/13 12:34:07;;;;;;;4.47;2.58;;;32.00;37.10;;;;;;4852907;29;20049;-70
2022/08/13 12:36:33;;;;;;;3.70;2.38;;;32.40;37.90;;;;;;4849772;29;20108;-68
2022/08/13 12:38:58;;;;;;;4.38;2.40;;;32.60;36.90;;;;;;4855856;29;20042;-70
2022/08/13 12:41:24;;;;;;;4.28;2.53;;;32.80;38.00;;;;;;4854863;29;20064;-67
2022/08/13 12:43:49;;;;;;;3.47;2.65;;;32.10;37.50;;;;;;4849897;29;22152;-67
2022/08/13 12:46:15;;;;;;;4.28;2.58;;;32.40;38.20;;;;;;4833640;29;20075;-68
2022/08/13 12:48:40;;;;;;;4.00;2.50;;;33.00;37.70;;;;;;4855137;29;20590;-68
2022/08/13 12:51:06;;;;;;;4.53;2.70;;;34.00;36.30;;;;;;4855687;29;20045;-68
2022/08/13 12:53:31;;;;;;;6.38;2.65;;;34.20;34.80;;;;;;4855427;29;20417;-67
2022/08/13 12:55:57;;;;;;;4.93;2.55;;;34.80;34.20;;;;;;4859503;29;20152;-69
2022/08/13 12:58:24;;;;;;;4.72;2.65;;;34.40;34.40;;;;;;4850651;29;20057;-68
2022/08/13 13:00:54;;;;;;;6.65;2.88;;;34.80;34.70;;;;;;4860014;29;20126;-69
2022/08/13 13:03:20;;;;;;;7.88;3.30;;;35.20;34.80;;;;;;4847731;29;20041;-69
2022/08/13 13:05:49;;;;;;;5.95;2.97;;;34.90;34.30;;;;;;4859634;29;20033;-68
2022/08/13 13:08:17;;;;;;;3.35;2.42;;;35.10;33.20;;;;;;4857919;29;20045;-69
2022/08/13 13:10:45;;;;;;;6.63;2.80;;;36.20;31.70;;;;;;4851686;29;20041;-67
2022/08/13 13:13:12;;;;;;;4.28;2.80;;;35.60;31.50;;;;;;4857308;29;20399;-67
2022/08/13 13:15:38;;;;;;;5.35;2.83;;;35.60;32.30;;;;;;4850708;29;20120;-67